createdAt,value
2022-09-02T00:02:42.707Z,68.38
2022-09-02T00:08:14.660Z,70.30
2022-09-02T00:13:46.616Z,70.29
2022-09-02T00:19:18.670Z,70.51
2022-09-02T00:24:50.551Z,70.47
2022-09-02T00:30:22.261Z,70.06
2022-09-02T00:35:54.201Z,70.09
2022-09-02T00:41:25.985Z,70.16
2022-09-02T00:46:57.867Z,70.85
2022-09-02T00:52:29.699Z,71.72
2022-09-02T00:58:01.338Z,71.64
2022-09-02T01:03:32.864Z,72.14
2022-09-02T01:09:04.733Z,72.61
2022-09-02T01:14:36.284Z,72.53
2022-09-02T01:25:39.776Z,72.05
2022-09-02T01:31:11.487Z,72.09
2022-09-02T01:36:43.096Z,72.11
2022-09-02T01:42:14.851Z,72.21
2022-09-02T01:47:46.818Z,72.62
2022-09-02T01:53:19.174Z,72.81
2022-09-02T01:58:51.314Z,72.90
2022-09-02T02:04:22.728Z,72.97
2022-09-02T02:09:54.912Z,73.07
2022-09-02T02:17:49.259Z,73.65
2022-09-02T02:23:21.145Z,73.55
2022-09-02T02:28:52.780Z,73.35
2022-09-02T02:34:24.607Z,73.53
2022-09-02T02:39:56.403Z,73.44
2022-09-02T02:45:28.311Z,73.37
2022-09-02T02:56:31.882Z,73.55
2022-09-02T03:02:03.644Z,74.11
2022-09-02T03:07:35.093Z,73.73
2022-09-02T03:13:07.072Z,74.04
2022-09-02T03:18:38.812Z,74.03
2022-09-02T03:24:10.440Z,74.22
2022-09-02T03:29:42.078Z,74.32
2022-09-02T03:35:13.832Z,74.22
2022-09-02T03:40:45.711Z,74.40
2022-09-02T03:46:17.320Z,74.52
2022-09-02T03:51:49.528Z,75.10
2022-09-02T03:57:21.564Z,75.01
2022-09-02T04:02:53.547Z,75.25
2022-09-02T04:08:25.336Z,75.74
2022-09-02T04:13:56.939Z,75.38
2022-09-02T04:19:28.619Z,75.49
2022-09-02T04:25:00.432Z,75.68
2022-09-02T04:30:32.127Z,75.96
2022-09-02T04:36:03.658Z,76.49
2022-09-02T04:47:09.135Z,76.41
2022-09-02T04:52:41.103Z,76.45
2022-09-02T04:58:12.942Z,76.39
2022-09-02T05:03:44.817Z,76.26
2022-09-02T05:09:16.505Z,75.97
2022-09-02T05:14:48.272Z,75.32
2022-09-02T05:20:20.129Z,71.32
2022-09-02T05:25:52.082Z,71.11
2022-09-02T05:31:23.759Z,67.95
2022-09-02T05:36:55.649Z,65.66
2022-09-02T05:44:47.588Z,0.00
2022-09-02T05:55:48.796Z,58.32
2022-09-02T06:01:20.668Z,55.51
2022-09-02T06:06:52.371Z,55.60
2022-09-02T06:17:53.767Z,53.44
2022-09-02T06:23:25.316Z,52.37
2022-09-02T06:28:57.241Z,51.44
2022-09-02T06:34:28.931Z,51.00
2022-09-02T06:40:00.633Z,49.17
2022-09-02T06:45:32.759Z,48.52
2022-09-02T06:51:04.602Z,48.98
2022-09-02T06:56:36.225Z,47.25
2022-09-02T07:02:08.303Z,46.55
2022-09-02T07:07:39.565Z,46.31
2022-09-02T07:13:11.736Z,45.78
2022-09-02T07:18:43.374Z,45.63
2022-09-02T07:24:15.194Z,45.80
2022-09-02T07:29:47.202Z,45.05
2022-09-02T07:43:07.655Z,44.31
2022-09-02T07:48:39.564Z,43.00
2022-09-02T07:54:11.422Z,42.85
2022-09-02T08:02:03.288Z,0.00
2022-09-02T08:07:35.216Z,42.76
2022-09-02T08:13:06.943Z,42.10
2022-09-02T08:24:08.548Z,41.51
2022-09-02T08:29:40.136Z,42.91
2022-09-02T08:35:11.890Z,42.03
2022-09-02T08:40:43.796Z,41.17
2022-09-02T08:46:15.542Z,41.14
2022-09-02T08:51:47.211Z,39.79
2022-09-02T08:57:19.045Z,39.57
2022-09-02T09:02:51.039Z,38.92
2022-09-02T09:08:22.704Z,38.02
2022-09-02T09:13:54.347Z,38.87
2022-09-02T09:24:55.949Z,37.36
2022-09-02T09:30:27.812Z,37.68
2022-09-02T09:35:59.499Z,38.94
2022-09-02T09:47:01.281Z,40.61
2022-09-02T09:52:33.122Z,41.23
2022-09-02T09:58:04.764Z,41.35
2022-09-02T10:03:36.475Z,41.65
2022-09-02T10:09:08.174Z,40.75
2022-09-02T10:14:40.123Z,41.10
2022-09-02T10:20:11.953Z,41.00
2022-09-02T10:27:56.325Z,41.33
2022-09-02T10:38:57.667Z,40.35
2022-09-02T10:44:29.525Z,40.34
2022-09-02T10:55:32.097Z,39.69
2022-09-02T11:01:04.059Z,39.75
2022-09-02T11:06:51.809Z,40.11
2022-09-02T11:17:39.495Z,39.80
2022-09-02T11:28:42.912Z,41.19
2022-09-02T11:39:54.488Z,40.63
2022-09-02T11:45:18.459Z,40.32
2022-09-02T11:50:50.263Z,40.39
2022-09-02T11:56:22.039Z,39.71
2022-09-02T12:01:53.701Z,40.94
2022-09-02T12:07:26.777Z,39.97
2022-09-02T12:12:57.163Z,39.31
2022-09-02T12:18:28.901Z,39.58
2022-09-02T12:24:00.990Z,39.66
2022-09-02T12:29:32.832Z,39.92
2022-09-02T12:35:05.287Z,39.49
2022-09-02T12:40:36.550Z,39.15
2022-09-02T12:46:08.804Z,39.62
2022-09-02T12:51:40.545Z,39.06
2022-09-02T12:57:12.688Z,39.23
2022-09-02T13:08:15.356Z,39.18
2022-09-02T13:13:47.388Z,38.89
2022-09-02T13:19:20.805Z,38.95
2022-09-02T13:24:52.470Z,38.99
2022-09-02T13:30:24.215Z,39.34
2022-09-02T13:41:27.710Z,39.14
2022-09-02T13:46:59.593Z,38.72
2022-09-02T13:53:34.311Z,39.18
2022-09-02T14:00:23.732Z,39.09
2022-09-02T14:05:55.580Z,39.51
2022-09-02T14:11:27.244Z,39.33
2022-09-02T14:16:59.802Z,39.17
2022-09-02T14:22:31.355Z,39.14
2022-09-02T14:28:02.945Z,38.98
2022-09-02T14:33:34.658Z,39.45
2022-09-02T14:39:06.581Z,39.10
2022-09-02T14:44:38.061Z,39.21
2022-09-02T14:50:09.959Z,39.87
2022-09-02T14:55:41.647Z,39.61
2022-09-02T15:01:13.659Z,39.53
2022-09-02T15:06:45.489Z,39.89
2022-09-02T15:12:20.124Z,39.59
2022-09-02T15:17:48.666Z,39.60
2022-09-02T15:23:20.718Z,39.85
2022-09-02T15:34:24.331Z,39.92
2022-09-02T15:39:56.277Z,40.00
2022-09-02T15:45:27.947Z,40.08
2022-09-02T15:50:59.808Z,40.24
2022-09-02T15:56:31.373Z,40.19
2022-09-02T16:02:03.380Z,40.40
2022-09-02T16:07:35.136Z,40.35
2022-09-02T16:13:06.733Z,40.60
2022-09-02T16:18:38.971Z,40.85
2022-09-02T16:24:10.392Z,40.59
2022-09-02T16:29:42.166Z,40.91
2022-09-02T16:35:13.986Z,41.03
2022-09-02T16:40:45.667Z,41.15
2022-09-02T16:46:18.204Z,40.93
2022-09-02T16:51:50.427Z,41.22
2022-09-02T16:57:22.164Z,41.64
2022-09-02T17:02:54.312Z,42.01
2022-09-02T17:08:25.714Z,41.75
2022-09-02T17:13:57.803Z,41.87
2022-09-02T17:19:32.320Z,42.43
2022-09-02T17:30:32.625Z,43.34
2022-09-02T17:41:33.722Z,44.20
2022-09-02T17:52:37.282Z,44.99
2022-09-02T17:58:09.328Z,45.32
2022-09-02T18:03:40.965Z,45.77
2022-09-02T18:20:11.592Z,46.71
2022-09-02T18:25:43.394Z,47.07
2022-09-02T18:31:15.162Z,47.56
2022-09-02T18:36:46.633Z,47.84
2022-09-02T18:42:18.286Z,48.20
2022-09-02T18:47:50.097Z,48.46
2022-09-02T18:53:21.378Z,48.75
2022-09-02T19:04:27.388Z,49.85
2022-09-02T19:09:55.808Z,50.01
2022-09-02T19:15:27.216Z,50.23
2022-09-02T19:26:28.166Z,50.54
2022-09-02T19:32:05.899Z,51.29
2022-09-02T19:37:44.212Z,51.79
2022-09-02T19:43:08.994Z,52.45
2022-09-02T19:48:40.693Z,52.53
2022-09-02T19:54:12.623Z,52.61
2022-09-02T19:59:44.427Z,52.72
2022-09-02T20:05:16.248Z,53.13
2022-09-02T20:16:17.738Z,53.37
2022-09-02T20:21:49.328Z,53.58
2022-09-02T20:32:51.097Z,53.92
2022-09-02T20:38:23.531Z,54.21
2022-09-02T20:43:56.067Z,54.41
2022-09-02T20:49:28.198Z,54.50
2022-09-02T20:57:20.593Z,54.54
2022-09-02T21:02:52.530Z,54.58
2022-09-02T21:08:24.398Z,54.62
2022-09-02T21:13:56.382Z,54.82
2022-09-02T21:19:27.821Z,54.92
2022-09-02T21:24:59.660Z,55.18
2022-09-02T21:30:31.605Z,55.45
2022-09-02T21:36:06.850Z,55.46
2022-09-02T21:41:38.434Z,55.36
2022-09-02T21:47:10.381Z,55.95
2022-09-02T21:52:42.267Z,56.88
2022-09-02T21:58:14.017Z,56.94
2022-09-02T22:03:45.763Z,57.33
2022-09-02T22:09:17.893Z,57.53
2022-09-02T22:22:39.212Z,57.89
2022-09-02T22:28:10.591Z,57.93
2022-09-02T22:39:16.721Z,57.97
2022-09-02T22:50:13.191Z,59.18
2022-09-02T22:55:45.267Z,59.13
2022-09-02T23:01:17.058Z,59.12
2022-09-02T23:06:48.629Z,59.05
2022-09-02T23:12:20.754Z,59.15
2022-09-02T23:17:52.319Z,59.25
2022-09-02T23:23:24.336Z,59.51
2022-09-02T23:28:56.168Z,59.57
2022-09-02T23:34:27.645Z,59.60
2022-09-02T23:39:59.527Z,59.78
2022-09-02T23:45:31.460Z,60.32
2022-09-02T23:51:03.380Z,60.62
2022-09-02T23:56:34.854Z,60.66
